createdAt,value
2018-09-12T00:01:44.762Z,19.82
2018-09-12T00:04:13.451Z,19.91
2018-09-12T00:06:42.211Z,19.91
2018-09-12T00:09:12.187Z,19.87
2018-09-12T00:11:41.209Z,19.87
2018-09-12T00:14:10.180Z,20.05
2018-09-12T00:16:38.840Z,20.02
2018-09-12T00:19:08.049Z,20.06
2018-09-12T00:21:37.010Z,19.97
2018-09-12T00:24:05.641Z,19.94
2018-09-12T00:26:34.241Z,19.86
2018-09-12T00:29:02.898Z,19.81
2018-09-12T00:31:31.586Z,19.87
2018-09-12T00:34:00.251Z,19.94
2018-09-12T00:36:28.932Z,19.96
2018-09-12T00:38:57.622Z,19.89
2018-09-12T00:41:26.332Z,19.91
2018-09-12T00:43:55.027Z,19.84
2018-09-12T00:46:23.675Z,19.97
2018-09-12T00:48:52.386Z,20.14
2018-09-12T00:51:21.031Z,20.17
2018-09-12T00:53:49.731Z,20.13
2018-09-12T00:56:18.611Z,20.17
2018-09-12T00:58:47.263Z,20.14
2018-09-12T01:01:15.900Z,20.04
2018-09-12T01:03:44.640Z,20.00
2018-09-12T01:06:13.344Z,19.97
2018-09-12T01:08:42.605Z,19.95
2018-09-12T01:11:11.315Z,19.94
2018-09-12T01:13:39.991Z,19.85
2018-09-12T01:16:08.636Z,19.87
2018-09-12T01:18:37.280Z,19.85
2018-09-12T01:21:05.979Z,19.71
2018-09-12T01:23:34.615Z,19.65
2018-09-12T01:26:03.327Z,19.61
2018-09-12T01:28:31.979Z,19.58
2018-09-12T01:31:00.624Z,19.55
2018-09-12T01:33:29.310Z,19.47
2018-09-12T01:35:58.015Z,19.45
2018-09-12T01:38:26.666Z,19.42
2018-09-12T01:40:55.406Z,19.39
2018-09-12T01:43:24.051Z,19.33
2018-09-12T01:45:52.751Z,19.34
2018-09-12T01:48:21.427Z,19.31
2018-09-12T01:50:50.041Z,19.42
2018-09-12T01:53:18.670Z,19.39
2018-09-12T01:55:47.342Z,19.29
2018-09-12T01:58:16.025Z,19.24
2018-09-12T02:00:44.731Z,19.28
2018-09-12T02:03:13.446Z,19.20
2018-09-12T02:05:42.931Z,19.19
2018-09-12T02:08:11.552Z,19.05
2018-09-12T02:10:40.191Z,18.96
2018-09-12T02:13:08.819Z,19.02
2018-09-12T02:15:37.511Z,19.09
2018-09-12T02:18:06.197Z,19.07
2018-09-12T02:20:34.862Z,19.01
2018-09-12T02:23:03.484Z,19.01
2018-09-12T02:25:32.168Z,19.09
2018-09-12T02:28:01.051Z,19.04
2018-09-12T02:30:29.701Z,19.09
2018-09-12T02:32:58.359Z,19.02
2018-09-12T02:35:27.034Z,19.01
2018-09-12T02:37:55.676Z,18.85
2018-09-12T02:40:24.407Z,18.73
2018-09-12T02:42:53.031Z,18.67
2018-09-12T02:45:21.761Z,18.74
2018-09-12T02:47:50.411Z,18.68
2018-09-12T02:50:19.076Z,18.64
2018-09-12T02:52:47.700Z,18.66
2018-09-12T02:55:16.335Z,18.57
2018-09-12T02:57:45.007Z,18.50
2018-09-12T03:00:13.666Z,18.58
2018-09-12T03:02:43.002Z,18.54
2018-09-12T03:05:11.666Z,18.47
2018-09-12T03:07:40.344Z,18.47
2018-09-12T03:10:09.005Z,18.52
2018-09-12T03:12:37.635Z,18.57
2018-09-12T03:15:06.310Z,18.51
2018-09-12T03:17:35.069Z,18.44
2018-09-12T03:20:03.815Z,18.39
2018-09-12T03:22:32.482Z,18.31
2018-09-12T03:25:01.145Z,18.31
2018-09-12T03:27:30.426Z,18.30
2018-09-12T03:29:59.121Z,18.33
2018-09-12T03:32:27.752Z,18.42
2018-09-12T03:34:56.420Z,18.53
2018-09-12T03:37:25.142Z,18.59
2018-09-12T03:39:53.767Z,18.63
2018-09-12T03:42:22.483Z,18.64
2018-09-12T03:44:51.185Z,18.47
2018-09-12T03:47:19.836Z,18.32
2018-09-12T03:49:48.480Z,18.29
2018-09-12T03:52:17.136Z,18.31
2018-09-12T03:54:45.840Z,18.22
2018-09-12T03:57:14.529Z,18.08
2018-09-12T03:59:43.138Z,18.10
2018-09-12T04:02:11.817Z,18.09
2018-09-12T04:04:40.440Z,18.08
2018-09-12T04:07:09.112Z,17.97
2018-09-12T04:09:37.776Z,17.94
2018-09-12T04:12:06.475Z,17.99
2018-09-12T04:14:35.096Z,17.96
2018-09-12T04:17:03.803Z,18.00
2018-09-12T04:19:32.427Z,18.04
2018-09-12T04:22:01.090Z,18.02
2018-09-12T04:24:29.732Z,17.98
2018-09-12T04:26:58.425Z,17.91
2018-09-12T04:29:27.096Z,17.79
2018-09-12T04:31:55.812Z,17.75
2018-09-12T04:34:24.446Z,17.67
2018-09-12T04:36:53.459Z,17.73
2018-09-12T04:39:22.172Z,17.82
2018-09-12T04:41:50.890Z,17.80
2018-09-12T04:44:19.538Z,17.77
2018-09-12T04:46:48.271Z,17.94
2018-09-12T04:49:16.991Z,18.08
2018-09-12T04:51:45.655Z,18.18
2018-09-12T04:54:14.415Z,18.15
2018-09-12T04:56:43.421Z,18.08
2018-09-12T04:59:12.047Z,17.80
2018-09-12T05:01:40.681Z,17.79
2018-09-12T05:04:09.336Z,17.85
2018-09-12T05:06:37.981Z,17.88
2018-09-12T05:09:08.697Z,17.82
2018-09-12T05:11:37.452Z,17.78
2018-09-12T05:14:06.220Z,17.58
2018-09-12T05:16:34.940Z,17.30
2018-09-12T05:19:03.696Z,17.38
2018-09-12T05:21:32.346Z,17.29
2018-09-12T05:24:01.081Z,17.27
2018-09-12T05:26:29.737Z,17.30
2018-09-12T05:28:58.386Z,17.26
2018-09-12T05:31:27.116Z,17.39
2018-09-12T05:33:55.799Z,17.29
2018-09-12T05:36:24.509Z,17.40
2018-09-12T05:38:53.220Z,17.43
2018-09-12T05:41:21.864Z,17.54
2018-09-12T05:43:50.550Z,17.66
2018-09-12T05:46:19.256Z,17.69
2018-09-12T05:48:47.865Z,17.49
2018-09-12T05:51:16.656Z,17.38
2018-09-12T05:53:45.481Z,17.60
2018-09-12T05:56:14.365Z,17.80
2018-09-12T05:58:44.183Z,17.92
2018-09-12T06:01:13.845Z,18.03
2018-09-12T06:03:44.068Z,18.24
2018-09-12T06:06:13.813Z,18.39
2018-09-12T06:08:42.676Z,18.38
2018-09-12T06:11:11.541Z,18.31
2018-09-12T06:13:40.945Z,18.14
2018-09-12T06:16:09.741Z,18.10
2018-09-12T06:18:38.471Z,18.18
2018-09-12T06:21:07.331Z,18.27
2018-09-12T06:23:36.261Z,18.38
2018-09-12T06:26:05.649Z,18.61
2018-09-12T06:28:34.404Z,18.67
2018-09-12T06:31:03.286Z,18.54
2018-09-12T06:33:32.205Z,18.43
2018-09-12T06:36:01.157Z,18.38
2018-09-12T06:38:30.131Z,18.29
2018-09-12T06:40:59.166Z,18.39
2018-09-12T06:43:28.810Z,18.47
2018-09-12T06:45:57.657Z,18.67
2018-09-12T06:48:27.904Z,18.75
2018-09-12T06:50:57.244Z,18.95
2018-09-12T06:53:26.771Z,19.14
2018-09-12T06:55:55.669Z,19.20
2018-09-12T06:58:24.669Z,19.22
2018-09-12T07:00:54.213Z,19.12
2018-09-12T07:03:23.050Z,19.17
2018-09-12T07:05:51.839Z,19.16
2018-09-12T07:08:20.579Z,19.14
2018-09-12T07:10:49.480Z,19.12
2018-09-12T07:13:19.389Z,19.24
2018-09-12T07:15:48.331Z,19.17
2018-09-12T07:18:17.121Z,19.19
2018-09-12T07:20:45.999Z,19.32
2018-09-12T07:23:14.840Z,19.47
2018-09-12T07:25:43.552Z,19.45
2018-09-12T07:28:12.175Z,19.44
2018-09-12T07:30:41.471Z,19.50
2018-09-12T07:33:10.420Z,19.66
2018-09-12T07:35:39.191Z,19.70
2018-09-12T07:38:07.951Z,19.66
2018-09-12T07:40:36.814Z,19.67
2018-09-12T07:43:05.765Z,19.71
2018-09-12T07:45:34.615Z,19.86
2018-09-12T07:48:03.396Z,19.79
2018-09-12T07:50:32.142Z,19.93
2018-09-12T07:53:01.991Z,20.17
2018-09-12T07:55:30.732Z,20.52
2018-09-12T07:57:59.530Z,20.83
2018-09-12T08:00:28.529Z,21.04
2018-09-12T08:02:57.127Z,21.25
2018-09-12T08:05:26.103Z,21.49
2018-09-12T08:07:54.912Z,21.61
2018-09-12T08:13:20.682Z,22.10
2018-09-12T08:15:49.352Z,22.26
2018-09-12T08:18:18.169Z,22.13
2018-09-12T08:20:47.020Z,22.12
2018-09-12T08:23:15.940Z,22.28
2018-09-12T08:25:44.586Z,22.57
2018-09-12T08:28:13.662Z,22.69
2018-09-12T08:30:42.432Z,22.55
2018-09-12T08:33:11.254Z,22.58
2018-09-12T08:35:39.967Z,22.36
2018-09-12T08:38:09.290Z,22.48
2018-09-12T08:40:38.153Z,23.01
2018-09-12T08:43:07.602Z,23.16
2018-09-12T08:45:37.840Z,23.30
2018-09-12T08:48:06.757Z,23.33
2018-09-12T08:50:35.542Z,23.29
2018-09-12T08:53:04.296Z,23.24
2018-09-12T08:55:33.707Z,23.43
2018-09-12T08:58:02.380Z,23.54
2018-09-12T09:00:35.906Z,23.78
2018-09-12T09:03:06.336Z,23.90
2018-09-12T09:05:34.994Z,23.86
2018-09-12T09:08:03.842Z,24.06
2018-09-12T09:10:32.666Z,24.21
2018-09-12T09:13:01.426Z,24.12
2018-09-12T09:15:30.370Z,24.25
2018-09-12T09:17:59.091Z,24.50
2018-09-12T09:20:28.090Z,24.40
2018-09-12T09:22:56.952Z,24.52
2018-09-12T09:25:25.706Z,24.73
2018-09-12T09:27:54.416Z,24.78
2018-09-12T09:30:26.031Z,24.88
2018-09-12T09:32:54.702Z,24.57
2018-09-12T09:35:23.374Z,24.27
2018-09-12T09:37:51.956Z,24.21
2018-09-12T09:40:20.687Z,24.51
2018-09-12T09:42:49.494Z,24.53
2018-09-12T09:45:18.300Z,24.74
2018-09-12T09:47:47.626Z,24.59
2018-09-12T09:50:16.326Z,24.31
2018-09-12T09:52:45.105Z,23.97
2018-09-12T09:55:13.809Z,23.88
2018-09-12T09:57:43.130Z,23.75
2018-09-12T10:00:17.396Z,23.56
2018-09-12T10:02:51.296Z,23.48
2018-09-12T10:05:25.750Z,23.12
2018-09-12T10:07:59.899Z,22.91
2018-09-12T10:10:28.654Z,22.78
2018-09-12T10:12:57.688Z,22.83
2018-09-12T10:15:26.255Z,23.26
2018-09-12T10:17:55.149Z,23.51
2018-09-12T10:20:24.767Z,23.54
2018-09-12T10:22:53.506Z,23.81
2018-09-12T10:25:22.131Z,24.03
2018-09-12T10:27:50.914Z,24.09
2018-09-12T10:30:19.662Z,23.99
2018-09-12T10:32:48.249Z,24.01
2018-09-12T10:35:16.836Z,24.06
2018-09-12T10:37:45.449Z,23.85
2018-09-12T10:40:14.030Z,23.94
2018-09-12T10:42:43.262Z,24.10
2018-09-12T10:45:12.125Z,24.34
2018-09-12T10:47:40.930Z,24.54
2018-09-12T10:50:09.712Z,24.65
2018-09-12T10:52:38.555Z,24.65
2018-09-12T10:55:08.024Z,24.57
2018-09-12T10:57:36.787Z,24.50
2018-09-12T11:00:06.842Z,24.23
2018-09-12T11:02:36.125Z,24.16
2018-09-12T11:05:05.003Z,24.07
2018-09-12T11:07:33.721Z,24.00
2018-09-12T11:10:02.839Z,23.88
2018-09-12T11:12:31.696Z,23.66
2018-09-12T11:15:01.385Z,23.45
2018-09-12T11:17:30.853Z,23.56
2018-09-12T11:20:00.194Z,23.50
2018-09-12T11:22:29.228Z,23.41
2018-09-12T11:24:58.615Z,23.60
2018-09-12T11:27:27.650Z,23.47
2018-09-12T11:29:57.339Z,23.17
2018-09-12T11:32:26.131Z,23.20
2018-09-12T11:34:54.990Z,23.10
2018-09-12T11:37:24.004Z,22.97
2018-09-12T11:39:52.769Z,22.83
2018-09-12T11:42:21.684Z,22.90
2018-09-12T11:44:50.586Z,22.79
2018-09-12T11:47:20.112Z,22.33
2018-09-12T11:49:48.929Z,22.10
2018-09-12T11:52:18.407Z,22.13
2018-09-12T11:54:47.281Z,22.28
2018-09-12T11:57:16.245Z,22.44
2018-09-12T11:59:45.154Z,22.33
2018-09-12T12:02:14.077Z,22.22
2018-09-12T12:04:42.904Z,21.92
2018-09-12T12:07:11.854Z,21.76
2018-09-12T12:09:40.760Z,21.81
2018-09-12T12:12:10.081Z,21.90
2018-09-12T12:14:38.864Z,21.80
2018-09-12T12:17:07.659Z,21.66
2018-09-12T12:19:36.439Z,21.57
2018-09-12T12:22:05.188Z,21.76
2018-09-12T12:24:34.176Z,21.81
2018-09-12T12:27:03.059Z,21.94
2018-09-12T12:29:31.943Z,21.87
2018-09-12T12:32:01.249Z,22.00
2018-09-12T12:34:30.021Z,22.05
2018-09-12T12:36:59.321Z,22.19
2018-09-12T12:39:28.190Z,22.47
2018-09-12T12:41:57.024Z,22.40
2018-09-12T12:44:26.078Z,22.69
2018-09-12T12:46:55.061Z,22.76
2018-09-12T12:49:24.055Z,22.29
2018-09-12T12:51:53.234Z,22.28
2018-09-12T12:54:22.014Z,22.31
2018-09-12T12:56:51.106Z,22.50
2018-09-12T12:59:19.974Z,22.63
2018-09-12T13:01:48.773Z,22.50
2018-09-12T13:04:17.705Z,22.26
2018-09-12T13:06:46.517Z,22.28
2018-09-12T13:09:15.451Z,21.89
2018-09-12T13:11:44.680Z,21.77
2018-09-12T13:14:14.303Z,21.62
2018-09-12T13:16:43.119Z,21.58
2018-09-12T13:19:12.034Z,21.40
2018-09-12T13:21:41.065Z,21.06
2018-09-12T13:24:09.825Z,21.06
2018-09-12T13:26:38.782Z,21.00
2018-09-12T13:29:07.648Z,20.42
2018-09-12T13:31:36.431Z,20.34
2018-09-12T13:34:05.295Z,19.92
2018-09-12T13:36:35.064Z,19.71
2018-09-12T13:39:06.738Z,19.52
2018-09-12T13:41:36.985Z,19.41
2018-09-12T13:44:05.808Z,19.58
2018-09-12T13:46:34.734Z,19.66
2018-09-12T13:49:03.968Z,19.69
2018-09-12T13:51:32.751Z,19.70
2018-09-12T13:54:01.515Z,19.71
2018-09-12T13:56:30.689Z,19.76
2018-09-12T13:59:00.440Z,19.68
2018-09-12T14:01:29.303Z,19.68
2018-09-12T14:03:58.033Z,19.42
2018-09-12T14:06:26.770Z,19.45
2018-09-12T14:08:55.762Z,19.50
2018-09-12T14:11:25.049Z,19.44
2018-09-12T14:13:54.009Z,19.45
2018-09-12T14:16:22.894Z,19.66
2018-09-12T14:18:52.303Z,19.50
2018-09-12T14:21:21.126Z,19.56
2018-09-12T14:23:49.917Z,19.58
2018-09-12T14:26:19.413Z,19.42
2018-09-12T14:28:48.461Z,19.39
2018-09-12T14:31:17.453Z,19.42
2018-09-12T14:33:46.416Z,19.35
2018-09-12T14:36:15.333Z,19.12
2018-09-12T14:38:44.209Z,19.02
2018-09-12T14:41:13.173Z,19.00
2018-09-12T14:43:42.924Z,18.93
2018-09-12T14:46:11.928Z,18.73
2018-09-12T14:48:40.855Z,18.67
2018-09-12T14:51:10.097Z,18.57
2018-09-12T14:53:39.093Z,18.39
2018-09-12T14:56:08.209Z,18.24
2018-09-12T14:58:37.524Z,18.22
2018-09-12T15:01:06.873Z,18.18
2018-09-12T15:03:35.738Z,18.14
2018-09-12T15:06:04.529Z,18.14
2018-09-12T15:08:33.206Z,18.04
2018-09-12T15:11:01.965Z,17.83
2018-09-12T15:13:31.232Z,17.83
2018-09-12T15:16:00.107Z,17.83
2018-09-12T15:18:28.999Z,17.65
2018-09-12T15:20:57.917Z,17.53
2018-09-12T15:23:27.373Z,17.28
2018-09-12T15:25:56.241Z,17.21
2018-09-12T15:28:25.237Z,17.14
2018-09-12T15:30:54.144Z,17.36
2018-09-12T15:33:22.917Z,17.46
2018-09-12T15:35:51.822Z,17.60
2018-09-12T15:38:20.779Z,17.75
2018-09-12T15:40:49.808Z,17.74
2018-09-12T15:43:19.488Z,17.50
2018-09-12T15:45:48.409Z,17.70
2018-09-12T15:48:17.964Z,17.78
2018-09-12T15:50:46.703Z,17.64
2018-09-12T15:53:15.634Z,17.70
2018-09-12T15:55:45.446Z,17.54
2018-09-12T15:58:14.438Z,17.58
2018-09-12T16:00:43.189Z,17.53
2018-09-12T16:03:12.227Z,17.45
2018-09-12T16:05:41.052Z,17.47
2018-09-12T16:08:09.761Z,17.68
2018-09-12T16:10:38.788Z,17.78
2018-09-12T16:13:07.532Z,17.83
2018-09-12T16:15:36.668Z,17.72
2018-09-12T16:18:05.853Z,17.70
2018-09-12T16:20:35.471Z,17.73
2018-09-12T16:23:04.361Z,17.60
2018-09-12T16:25:39.368Z,17.46
2018-09-12T16:28:08.347Z,17.45
2018-09-12T16:30:37.137Z,17.36
2018-09-12T16:33:05.992Z,17.31
2018-09-12T16:35:34.834Z,17.15
2018-09-12T16:38:03.689Z,17.10
2018-09-12T16:40:32.427Z,17.04
2018-09-12T16:43:01.308Z,17.12
2018-09-12T16:45:30.177Z,17.20
2018-09-12T16:47:59.249Z,17.36
2018-09-12T16:50:28.152Z,17.35
2018-09-12T16:52:57.922Z,17.31
2018-09-12T16:55:26.692Z,17.31
2018-09-12T16:57:56.237Z,17.22
2018-09-12T17:00:25.183Z,17.00
2018-09-12T17:02:54.028Z,16.86
2018-09-12T17:05:22.738Z,16.97
2018-09-12T17:07:51.648Z,16.95
2018-09-12T17:10:20.565Z,16.98
2018-09-12T17:12:49.594Z,17.04
2018-09-12T17:15:18.410Z,16.83
2018-09-12T17:17:47.189Z,16.83
2018-09-12T17:20:16.088Z,16.99
2018-09-12T17:22:45.408Z,17.16
2018-09-12T17:25:14.087Z,17.11
2018-09-12T17:27:42.974Z,16.88
2018-09-12T17:30:12.393Z,16.73
2018-09-12T17:32:41.964Z,16.71
2018-09-12T17:35:10.802Z,16.56
2018-09-12T17:37:39.652Z,16.57
2018-09-12T17:40:09.182Z,16.56
2018-09-12T17:42:38.090Z,16.41
2018-09-12T17:45:07.915Z,16.43
2018-09-12T17:47:37.137Z,16.32
2018-09-12T17:50:06.303Z,16.33
2018-09-12T17:52:35.339Z,16.29
2018-09-12T17:55:04.275Z,16.30
2018-09-12T17:57:33.274Z,16.43
2018-09-12T18:00:02.454Z,16.39
2018-09-12T18:02:31.308Z,16.45
2018-09-12T18:05:00.174Z,16.43
2018-09-12T18:07:29.164Z,16.41
2018-09-12T18:09:58.249Z,16.33
2018-09-12T18:12:27.314Z,16.17
2018-09-12T18:14:56.298Z,16.13
2018-09-12T18:17:25.830Z,16.21
2018-09-12T18:19:54.764Z,16.26
2018-09-12T18:22:23.622Z,16.20
2018-09-12T18:24:52.470Z,16.26
2018-09-12T18:27:21.018Z,16.27
2018-09-12T18:29:49.718Z,16.53
2018-09-12T18:32:18.430Z,16.61
2018-09-12T18:34:47.180Z,16.53
2018-09-12T18:37:15.843Z,16.53
2018-09-12T18:39:44.512Z,16.54
2018-09-12T18:42:13.248Z,16.48
2018-09-12T18:44:41.940Z,16.34
2018-09-12T18:47:10.687Z,16.24
2018-09-12T18:49:39.393Z,16.22
2018-09-12T18:52:08.088Z,16.15
2018-09-12T18:54:36.738Z,16.05
2018-09-12T18:57:05.860Z,16.20
2018-09-12T18:59:34.770Z,16.45
2018-09-12T19:02:03.868Z,16.48
2018-09-12T19:04:32.614Z,16.36
2018-09-12T19:07:01.508Z,16.33
2018-09-12T19:09:30.240Z,16.51
2018-09-12T19:11:59.089Z,16.53
2018-09-12T19:14:27.796Z,16.56
2018-09-12T19:16:56.717Z,16.58
2018-09-12T19:19:25.619Z,16.66
2018-09-12T19:21:54.359Z,16.59
2018-09-12T19:24:23.068Z,16.45
2018-09-12T19:26:52.314Z,16.37
2018-09-12T19:29:22.453Z,16.47
2018-09-12T19:31:51.594Z,16.44
2018-09-12T19:34:20.318Z,16.27
2018-09-12T19:36:49.088Z,16.26
2018-09-12T19:39:17.852Z,16.26
2018-09-12T19:41:48.003Z,16.20
2018-09-12T19:44:16.734Z,16.12
2018-09-12T19:46:45.628Z,16.08
2018-09-12T19:49:14.569Z,16.09
2018-09-12T19:51:43.368Z,16.26
2018-09-12T19:54:12.361Z,16.18
2018-09-12T19:56:41.713Z,16.05
2018-09-12T19:59:10.406Z,16.12
2018-09-12T20:01:39.308Z,16.07
2018-09-12T20:04:08.319Z,16.10
2018-09-12T20:06:37.158Z,15.99
2018-09-12T20:09:09.033Z,15.91
2018-09-12T20:11:37.695Z,15.86
2018-09-12T20:14:06.585Z,15.98
2018-09-12T20:16:35.492Z,15.99
2018-09-12T20:19:04.288Z,15.85
2018-09-12T20:21:33.198Z,15.82
2018-09-12T20:24:02.483Z,16.00
2018-09-12T20:26:31.352Z,16.04
2018-09-12T20:29:00.389Z,15.92
2018-09-12T20:31:29.234Z,15.95
2018-09-12T20:33:58.128Z,16.12
2018-09-12T20:36:26.984Z,16.11
2018-09-12T20:38:56.057Z,16.15
2018-09-12T20:41:24.901Z,16.23
2018-09-12T20:43:53.869Z,16.13
2018-09-12T20:46:23.763Z,16.06
2018-09-12T20:48:52.661Z,16.04
2018-09-12T20:51:22.739Z,16.12
2018-09-12T20:53:51.726Z,16.28
2018-09-12T20:56:20.703Z,16.18
2018-09-12T20:58:49.618Z,16.13
2018-09-12T21:01:18.452Z,16.10
2018-09-12T21:03:47.304Z,16.08
2018-09-12T21:06:16.106Z,16.12
2018-09-12T21:08:44.895Z,16.00
2018-09-12T21:11:13.657Z,16.00
2018-09-12T21:13:42.484Z,15.95
2018-09-12T21:16:11.324Z,16.03
2018-09-12T21:18:40.188Z,16.20
2018-09-12T21:21:09.703Z,16.13
2018-09-12T21:23:38.732Z,16.09
2018-09-12T21:26:07.589Z,16.02
2018-09-12T21:28:36.548Z,16.14
2018-09-12T21:31:05.373Z,16.04
2018-09-12T21:33:34.231Z,16.02
2018-09-12T21:36:03.097Z,15.88
2018-09-12T21:38:32.013Z,15.87
2018-09-12T21:41:01.072Z,15.74
2018-09-12T21:43:29.866Z,16.01
2018-09-12T21:45:59.269Z,16.32
2018-09-12T21:48:28.619Z,16.46
2018-09-12T21:50:58.857Z,16.40
2018-09-12T21:53:27.997Z,16.31
2018-09-12T21:55:56.822Z,16.29
2018-09-12T21:58:25.765Z,16.30
2018-09-12T22:00:55.011Z,16.41
2018-09-12T22:03:23.692Z,16.45
2018-09-12T22:05:52.506Z,16.44
2018-09-12T22:08:21.287Z,16.38
2018-09-12T22:10:50.192Z,16.47
2018-09-12T22:13:18.913Z,16.35
2018-09-12T22:15:47.993Z,16.23
2018-09-12T22:18:16.977Z,16.12
2018-09-12T22:20:45.807Z,16.05
2018-09-12T22:23:14.745Z,16.03
2018-09-12T22:25:43.464Z,16.17
2018-09-12T22:28:13.018Z,16.14
2018-09-12T22:30:41.926Z,16.19
2018-09-12T22:33:10.848Z,16.29
2018-09-12T22:35:39.703Z,16.13
2018-09-12T22:38:08.493Z,16.11
2018-09-12T22:40:38.047Z,16.04
2018-09-12T22:43:07.128Z,16.16
2018-09-12T22:45:36.876Z,16.24
2018-09-12T22:48:05.713Z,16.32
2018-09-12T22:50:34.792Z,16.21
2018-09-12T22:53:03.600Z,16.20
2018-09-12T22:55:32.545Z,16.23
2018-09-12T22:58:01.265Z,16.16
2018-09-12T23:00:30.348Z,16.09
2018-09-12T23:02:59.214Z,16.12
2018-09-12T23:05:28.078Z,16.07
2018-09-12T23:07:57.138Z,16.02
2018-09-12T23:10:25.946Z,15.95
2018-09-12T23:12:55.402Z,15.85
2018-09-12T23:15:24.276Z,15.77
2018-09-12T23:17:53.029Z,15.67
2018-09-12T23:20:21.926Z,15.53
2018-09-12T23:22:50.901Z,15.59
2018-09-12T23:25:19.882Z,15.60
2018-09-12T23:27:48.786Z,15.60
2018-09-12T23:30:17.576Z,15.46
2018-09-12T23:32:47.298Z,15.25
2018-09-12T23:35:16.106Z,15.10
2018-09-12T23:37:45.041Z,15.16
2018-09-12T23:40:13.856Z,15.25
2018-09-12T23:42:42.816Z,15.19
2018-09-12T23:45:12.770Z,15.22
2018-09-12T23:47:42.033Z,15.34
2018-09-12T23:50:11.042Z,15.39
2018-09-12T23:52:40.401Z,15.31
2018-09-12T23:55:09.296Z,15.35
2018-09-12T23:57:37.967Z,15.35
